MUHATXKF

Guest
Details From MUHA - Havana Jose Marti Intl
To TXKF - Bermuda Intl
Flight Number -
Tags decoded
Created
Modified
Stats Distance 1,106 nm / 2,049 km
Max Altitude 0 ft / 0 m
Waypoints 5
Social Downloads 0
Likes 0
Share VATSIM

Download

Looking for another format? Having issues loading an existing format? Contact us
Advertisement - Login to hide

Notes

Requested: MUHA UVA R628 ZQA M329 ROOFE TXKF Unmatched points: R628 M329

Route

MUHA UVA ZQA ROOFE TXKF

ID Type Via Altitude Latitude Longitude Leg Dist Tot Dist Heading (true) Name
O MUHA APT - 0 ft / 0 m 22.98915˚ -82.40909˚ - 0 nm - Havana Jose Marti Intl
UVA VOR - 0 ft / 0 m 23.02469˚ -81.45358˚ 52 nm 52 nm 87° / 88° VARDER VOR-DME
ZQA NDB - 0 ft / 0 m 25.04042˚ -77.47050˚ 249 nm 302 nm 60° / 62° NASSAU NDB
ROOFE FIX - 0 ft / 0 m 31.67471˚ -65.91773˚ 728 nm 1030 nm 54° / 60° -
O TXKF APT - 0 ft / 0 m 32.36404˚ -64.67868˚ 75 nm 1106 nm 56° / 57° Bermuda Intl

Altitude Profile

Advertisement - Login to hide

Weather


0- 5 10 15 20 25 30 35+ Temperature / ° C

Clouds and Precipitation
Forecast for 2017-12-15 00:00 UTC. Updated 2 hours ago

Ground ~20,000 ft ~40,000 ft Winds

MUHA

Details ICAO MUHA (HAV)
Name Havana Jose Marti Intl
Region Cuba
Timezone America/Havana (UTC-5.0)
Stats Elevation 209 ft / 64 m (AMSL)
Location 22.989154° -82.409086°
Runways 1
Magnetic Variation 4.908° W

METAR

MUHA 142355Z 09005KT 9000 FEW035 18/14 Q1018

Decode

TAF

Not found

Departure Runways

ID Width Length Bearing (true) Bearing (mag) Surface Threshold Offset Overrun Length
06 148 ft / 45 m 13,133 ft / 4,003 m 54.21° 59.12° Asphalt 0 ft / 0 m 476 ft / 145 m
24 148 ft / 45 m 13,133 ft / 4,003 m 234.23° 239.14° Asphalt 0 ft / 0 m 197 ft / 60 m

TXKF

Details ICAO TXKF (BDA)
Name Bermuda Intl
Region Bermuda
Timezone Unknown (UTC+0.0)
Stats Elevation 12 ft / 4 m (AMSL)
Location 32.364038° -64.678684°
Runways 1
Magnetic Variation 14.784° W

METAR

TXKF 142355Z 23015KT 9999 VCSH SCT030 SCT070 BKN300 20/15 Q1017

Decode

TAF

TAF TXKF 142340Z 1500/1524 24016KT 9999 VCSH SCT030 BKN060 PROB40 TEMPO 1504/1518 8000 SHRA BKN030

Decode

Destination Runways

ID Width Length Bearing (true) Bearing (mag) Surface Threshold Offset Overrun Length
12 150 ft / 46 m 9,701 ft / 2,957 m 101.50° 116.28° Asphalt 0 ft / 0 m 553 ft / 169 m
30 150 ft / 46 m 9,701 ft / 2,957 m 281.52° 296.30° Asphalt 0 ft / 0 m 207 ft / 63 m

Approach Navaids

Runway Type Ident Frequency Range Bearing (true) Bearing (mag) Slope Elevation
30 Localiser IBDA 109.90 MHz 18 nm / 33 km 281.50° 296.29° - 11 ft / 3 m (AMSL)
30 Glidescope IBDA 109.90 MHz 10 nm / 19 km 281.51° 296.29° 3.00° 11 ft / 3 m (AMSL)

Popular Alternatives